Time;durP1;ratioP1;P1;durP2;ratioP2;P2;SDS_P1;SDS_P2;PMS_P1;PMS_P2;Temp;Humidity;BMP_temperature;BMP_pressure;BME280_temperature;BME280_humidity;BME280_pressure;Samples;Min_cycle;Max_cycle;Signal;HPM_P1;HPM_P2
2023/05/18 00:02:02;;;;;;;10.50;3.50;;;;;;;15.72;44.17;98759.88;5093770;28;20031;-49
2023/05/18 00:04:33;;;;;;;11.63;3.25;;;;;;;15.75;44.36;98760.25;5095014;28;20103;-49
2023/05/18 00:07:03;;;;;;;8.52;3.67;;;;;;;15.72;43.98;98757.22;5094991;28;20382;-49
2023/05/18 00:09:30;;;;;;;9.57;3.47;;;;;;;15.57;44.20;98760.31;5094924;28;20027;-49
2023/05/18 00:11:59;;;;;;;9.75;4.63;;;;;;;15.53;44.37;98754.72;5093587;28;20073;-49
2023/05/18 00:14:26;;;;;;;16.45;4.93;;;;;;;15.73;44.59;98754.34;5093512;28;20028;-49
2023/05/18 00:16:55;;;;;;;10.40;3.63;;;;;;;16.02;43.92;98762.38;5076632;28;20059;-49
2023/05/18 00:19:22;;;;;;;12.02;3.90;;;;;;;16.09;43.90;98752.44;5094675;28;20370;-49
2023/05/18 00:21:50;;;;;;;14.13;4.07;;;;;;;16.17;43.80;98752.06;5093362;28;20512;-50
2023/05/18 00:24:16;;;;;;;13.75;4.95;;;;;;;16.17;43.50;98754.72;5093305;28;20032;-49
2023/05/18 00:26:44;;;;;;;10.13;3.60;;;;;;;16.13;43.52;98753.59;5094557;28;20401;-49
2023/05/18 00:29:11;;;;;;;11.55;4.00;;;;;;;16.12;43.77;98753.84;5094555;28;20031;-49
2023/05/18 00:31:38;;;;;;;14.98;4.68;;;;;;;16.24;43.77;98748.50;5094486;28;20024;-49
2023/05/18 00:34:12;;;;;;;12.73;4.82;;;;;;;16.34;43.43;98754.00;5093167;28;20034;-49
2023/05/18 00:36:38;;;;;;;13.63;3.88;;;;;;;16.42;43.30;98748.34;5093139;28;20128;-49
2023/05/18 00:39:06;;;;;;;15.85;4.63;;;;;;;16.51;43.13;98746.88;5093442;28;20457;-49
2023/05/18 00:41:32;;;;;;;18.65;4.75;;;;;;;16.65;43.04;98747.41;5092555;28;20059;-49
2023/05/18 00:43:58;;;;;;;14.95;5.10;;;;;;;16.72;42.65;98742.78;5093029;28;20455;-49
2023/05/18 00:46:25;;;;;;;14.00;4.68;;;;;;;16.82;42.46;98738.69;5094055;28;20032;-49
2023/05/18 00:48:52;;;;;;;9.45;4.90;;;;;;;16.84;42.51;98747.22;5094477;28;20127;-49
2023/05/18 00:51:20;;;;;;;26.10;6.55;;;;;;;16.83;42.46;98745.63;5093067;28;20031;-49
2023/05/18 00:53:46;;;;;;;15.10;5.30;;;;;;;16.83;42.37;98748.28;5094334;28;20400;-49
2023/05/18 00:56:12;;;;;;;14.48;5.53;;;;;;;16.76;42.30;98757.16;5094041;28;20178;-49
2023/05/18 00:58:40;;;;;;;14.15;4.68;;;;;;;16.76;42.90;98743.91;5093966;28;20103;-49
2023/05/18 01:01:05;;;;;;;16.73;4.45;;;;;;;16.75;42.55;98750.22;5093887;28;20077;-49
2023/05/18 01:03:33;;;;;;;18.08;5.50;;;;;;;16.75;42.39;98750.22;5092576;28;20036;-49
2023/05/18 01:05:58;;;;;;;24.27;4.88;;;;;;;16.78;42.19;98751.59;5092712;28;20089;-49
2023/05/18 01:08:26;;;;;;;15.85;5.18;;;;;;;16.73;42.50;98762.13;5092769;28;20028;-49
2023/05/18 01:11:06;;;;;;;13.43;4.45;;;;;;;16.72;42.46;98757.84;5075755;28;20027;-49
2023/05/18 01:13:46;;;;;;;16.00;5.68;;;;;;;16.65;42.65;98759.84;5093756;28;20429;-49
2023/05/18 01:16:20;;;;;;;8.07;4.10;;;;;;;16.53;42.75;98763.34;5093658;28;20027;-49
2023/05/18 01:18:54;;;;;;;15.40;5.78;;;;;;;16.46;42.84;98756.59;5093724;28;20444;-49
2023/05/18 01:21:57;;;;;;;25.10;6.55;;;;;;;16.44;43.13;98756.84;5092216;28;20036;-49
2023/05/18 01:24:36;;;;;;;15.32;6.15;;;;;;;16.39;43.20;98754.09;5064474;28;20043;-49
2023/05/18 01:27:06;;;;;;;18.35;7.88;;;;;;;16.32;43.22;98756.09;5093459;28;20031;-49
2023/05/18 01:29:33;;;;;;;10.40;4.63;;;;;;;16.24;43.42;98751.97;5093432;28;20028;-49
2023/05/18 01:31:58;;;;;;;15.65;4.53;;;;;;;16.14;43.53;98759.72;5093308;28;20115;-49
2023/05/18 01:34:24;;;;;;;13.68;4.70;;;;;;;16.05;43.84;98753.97;5092012;28;20507;-49
2023/05/18 01:36:50;;;;;;;19.58;5.47;;;;;;;16.04;43.72;98759.50;5091950;28;20133;-49
2023/05/18 01:39:16;;;;;;;10.23;4.25;;;;;;;16.08;43.82;98766.75;5093174;28;20221;-49
2023/05/18 01:42:03;;;;;;;17.25;5.13;;;;;;;16.09;43.97;98754.31;5091613;28;20068;-49
2023/05/18 01:44:38;;;;;;;13.82;4.25;;;;;;;16.02;43.82;98762.38;5093120;28;20442;-49
2023/05/18 01:47:12;;;;;;;10.50;3.35;;;;;;;16.00;43.78;98764.47;5093090;28;20036;-49
2023/05/18 01:50:03;;;;;;;9.93;3.92;;;;;;;15.88;43.93;98771.63;5093358;28;20371;-49
2023/05/18 01:52:35;;;;;;;11.38;3.95;;;;;;;15.82;44.23;98759.31;5092746;28;20055;-50
2023/05/18 01:55:03;;;;;;;21.85;5.32;;;;;;;15.73;44.20;98754.34;5093103;28;20379;-49
2023/05/18 01:57:31;;;;;;;15.75;6.22;;;;;;;15.77;44.52;98758.19;5091826;28;20031;-49
2023/05/18 01:59:58;;;;;;;18.85;9.60;;;;;;;15.81;44.44;98758.50;5091530;28;20032;-49
2023/05/18 02:02:25;;;;;;;11.55;5.63;;;;;;;15.79;44.66;98755.28;5092782;28;20107;-49
2023/05/18 02:04:51;;;;;;;10.65;4.20;;;;;;;15.74;44.48;98757.81;5092688;28;20032;-50
2023/05/18 02:07:17;;;;;;;14.57;3.90;;;;;;;15.67;44.57;98760.53;5092631;28;20110;-49
2023/05/18 02:09:43;;;;;;;15.38;3.80;;;;;;;15.61;44.73;98760.66;5092735;28;20396;-49
2023/05/18 02:12:09;;;;;;;13.77;4.63;;;;;;;15.56;44.78;98756.09;5092571;28;20113;-49
2023/05/18 02:14:35;;;;;;;9.70;3.78;;;;;;;15.51;45.07;98758.59;5091234;28;20038;-49
2023/05/18 02:17:01;;;;;;;14.55;4.45;;;;;;;15.43;44.81;98762.38;5092419;28;20028;-50
2023/05/18 02:19:29;;;;;;;13.63;4.55;;;;;;;15.37;45.23;98760.66;5092489;28;20485;-50
2023/05/18 02:21:56;;;;;;;14.27;4.63;;;;;;;15.32;45.17;98752.63;5092362;28;20027;-50
2023/05/18 02:24:23;;;;;;;7.30;3.75;;;;;;;15.33;45.13;98754.22;5092430;28;20056;-49
2023/05/18 02:26:52;;;;;;;17.48;5.00;;;;;;;15.38;45.33;98759.66;5092236;28;20050;-49
2023/05/18 02:29:17;;;;;;;14.50;4.25;;;;;;;15.42;45.19;98760.78;5090983;28;20059;-50
2023/05/18 02:31:43;;;;;;;13.50;4.38;;;;;;;15.38;45.16;98764.94;5092268;28;20047;-49
2023/05/18 02:34:09;;;;;;;9.98;4.15;;;;;;;15.31;45.05;98759.75;5092237;28;20031;-49
2023/05/18 02:36:41;;;;;;;16.55;4.70;;;;;;;15.21;45.45;98766.63;5090894;28;20041;-50
2023/05/18 02:39:09;;;;;;;9.48;2.95;;;;;;;15.12;45.59;98774.91;5090859;28;20094;-49
2023/05/18 02:41:35;;;;;;;21.17;5.70;;;;;;;15.12;45.87;98774.91;5090606;28;20124;-50
2023/05/18 02:44:05;;;;;;;14.45;3.88;;;;;;;15.18;45.86;98775.84;5092146;28;20401;-49
2023/05/18 02:46:31;;;;;;;9.45;3.80;;;;;;;15.23;45.77;98764.56;5091921;28;20054;-49
2023/05/18 02:48:57;;;;;;;8.50;3.90;;;;;;;15.25;45.63;98771.25;5090733;28;20043;-49
2023/05/18 02:51:23;;;;;;;14.50;4.35;;;;;;;15.23;45.63;98775.16;5091995;28;20448;-49
2023/05/18 02:53:52;;;;;;;19.55;5.45;;;;;;;15.17;45.83;98775.03;5090728;28;20032;-49
2023/05/18 02:56:18;;;;;;;10.82;3.75;;;;;;;15.17;45.89;98772.41;5091970;28;20024;-49
2023/05/18 02:58:43;;;;;;;11.43;3.97;;;;;;;15.19;45.90;98774.78;5090609;28;20386;-50
2023/05/18 03:01:11;;;;;;;20.77;4.15;;;;;;;15.15;45.90;98774.47;5091886;28;20127;-49
2023/05/18 03:03:37;;;;;;;14.73;4.85;;;;;;;15.08;45.85;98773.75;5089867;28;20032;-49
2023/05/18 03:06:07;;;;;;;7.78;3.78;;;;;;;15.07;45.86;98777.44;5091770;28;20028;-49
2023/05/18 03:08:33;;;;;;;9.15;3.58;;;;;;;15.03;45.98;98784.22;5090571;28;20489;-49
2023/05/18 03:10:58;;;;;;;10.05;4.30;;;;;;;14.94;45.99;98775.78;5091757;28;20038;-49
2023/05/18 03:13:25;;;;;;;10.77;4.05;;;;;;;14.91;46.12;98773.59;5091790;28;20080;-50
2023/05/18 03:15:50;;;;;;;10.73;3.65;;;;;;;14.87;46.17;98783.03;5091691;28;20069;-49
2023/05/18 03:18:20;;;;;;;15.70;4.63;;;;;;;14.68;46.65;98792.03;5090445;28;20118;-51
2023/05/18 03:20:46;;;;;;;9.75;3.75;;;;;;;14.50;46.82;98783.06;5091697;28;20024;-50
2023/05/18 03:23:11;;;;;;;13.07;3.90;;;;;;;14.40;47.19;98788.06;5091711;28;20030;-50
2023/05/18 03:25:37;;;;;;;10.68;3.70;;;;;;;14.35;47.18;98793.22;5090319;28;20047;-50
2023/05/18 03:28:04;;;;;;;10.38;4.20;;;;;;;14.33;47.16;98788.16;5090345;28;20086;-50
2023/05/18 03:30:31;;;;;;;14.85;4.15;;;;;;;14.28;47.33;98795.13;5090291;28;20032;-49
2023/05/18 03:32:58;;;;;;;8.02;3.08;;;;;;;14.25;47.29;98791.13;5091625;28;20020;-50
2023/05/18 03:35:24;;;;;;;16.52;4.63;;;;;;;14.15;47.45;98791.63;5091808;28;20020;-49
2023/05/18 03:37:49;;;;;;;11.30;4.88;;;;;;;14.19;47.23;98797.28;5073453;28;20081;-49
2023/05/18 03:40:15;;;;;;;8.25;3.88;;;;;;;14.22;47.28;98799.47;5091328;28;20432;-50
2023/05/18 03:42:42;;;;;;;10.88;4.72;;;;;;;14.25;47.59;98799.03;5090262;28;20054;-49
2023/05/18 03:45:09;;;;;;;11.00;4.07;;;;;;;14.33;47.44;98796.09;5091438;28;20016;-49
2023/05/18 03:47:35;;;;;;;8.20;4.05;;;;;;;14.29;47.27;98796.75;5091548;28;20043;-49
2023/05/18 03:50:02;;;;;;;12.90;4.05;;;;;;;14.30;47.30;98798.34;5090117;28;20081;-49
2023/05/18 03:52:28;;;;;;;12.23;4.03;;;;;;;14.31;47.33;98800.78;5090099;28;20024;-50
2023/05/18 03:54:54;;;;;;;7.85;3.90;;;;;;;14.28;47.35;98809.13;5091360;28;20039;-49
2023/05/18 03:57:20;;;;;;;8.15;3.72;;;;;;;14.24;47.57;98807.97;5090074;28;20016;-49
2023/05/18 03:59:46;;;;;;;10.63;4.18;;;;;;;14.25;47.38;98806.16;5090132;28;20019;-50
2023/05/18 04:02:12;;;;;;;26.25;5.55;;;;;;;14.21;47.66;98816.34;5090265;28;20379;-49
2023/05/18 04:04:44;;;;;;;18.85;5.07;;;;;;;14.30;47.69;98815.00;5091232;28;20070;-50
2023/05/18 04:07:17;;;;;;;8.77;3.90;;;;;;;14.43;47.57;98816.69;5089979;28;20028;-50
2023/05/18 04:09:43;;;;;;;11.35;4.15;;;;;;;14.51;47.37;98818.22;5089998;28;20028;-49
2023/05/18 04:12:12;;;;;;;12.60;3.90;;;;;;;14.46;47.39;98820.72;5089960;28;20063;-49
2023/05/18 04:14:41;;;;;;;17.15;5.20;;;;;;;14.51;47.42;98823.50;5092010;28;20039;-50
2023/05/18 04:17:07;;;;;;;10.43;4.03;;;;;;;14.57;47.18;98815.53;5093465;28;20092;-49
2023/05/18 04:19:33;;;;;;;13.57;4.18;;;;;;;14.58;47.17;98819.75;5093493;28;20028;-49
2023/05/18 04:22:03;;;;;;;68.90;54.35;;;;;;;14.58;47.49;98827.69;5093425;28;20032;-49
2023/05/18 04:24:33;;;;;;;19.23;8.55;;;;;;;14.63;47.46;98820.94;5094935;28;20094;-49
2023/05/18 04:27:01;;;;;;;22.75;5.18;;;;;;;14.73;47.47;98823.88;5093175;28;20119;-49
2023/05/18 04:29:27;;;;;;;10.18;4.00;;;;;;;14.81;47.33;98823.56;5093305;28;20043;-50
2023/05/18 04:31:59;;;;;;;21.67;5.32;;;;;;;14.82;47.08;98829.63;5094579;28;20485;-50
2023/05/18 04:34:27;;;;;;;16.98;4.15;;;;;;;14.88;46.92;98832.19;5093317;28;20101;-50
2023/05/18 04:36:57;;;;;;;11.93;4.30;;;;;;;14.89;46.72;98832.97;5076833;28;20027;-50
2023/05/18 04:39:24;;;;;;;8.32;4.18;;;;;;;14.88;46.76;98837.47;5094482;28;20034;-49
2023/05/18 04:41:59;;;;;;;96.85;33.40;;;;;;;14.87;46.95;98837.69;5094091;28;20052;-50
2023/05/18 04:44:28;;;;;;;15.10;5.65;;;;;;;14.85;46.95;98843.22;5093237;28;20047;-49
2023/05/18 04:46:54;;;;;;;24.85;5.38;;;;;;;14.85;46.87;98845.03;5092840;28;20051;-49
2023/05/18 04:49:21;;;;;;;11.13;4.32;;;;;;;14.82;47.01;98842.84;5094169;28;20110;-49
2023/05/18 04:51:49;;;;;;;13.18;4.30;;;;;;;14.94;47.04;98846.34;5076205;28;20052;-50
2023/05/18 04:54:15;;;;;;;16.48;3.90;;;;;;;14.98;47.15;98850.94;5092835;28;20028;-49
2023/05/18 04:56:41;;;;;;;11.13;4.88;;;;;;;15.01;47.07;98851.53;5093994;28;20116;-50
2023/05/18 04:59:10;;;;;;;20.77;5.32;;;;;;;15.02;47.07;98848.66;5092768;28;20119;-50
2023/05/18 05:01:36;;;;;;;14.18;4.90;;;;;;;15.07;47.00;98853.25;5093959;28;20032;-49
2023/05/18 05:04:02;;;;;;;9.13;4.35;;;;;;;15.18;46.65;98841.94;5092609;28;20024;-49
2023/05/18 05:06:28;;;;;;;20.38;5.35;;;;;;;15.21;46.81;98852.03;5093755;28;20101;-49
2023/05/18 05:08:54;;;;;;;13.77;4.30;;;;;;;15.26;46.76;98851.38;5092498;28;20047;-49
2023/05/18 05:11:20;;;;;;;18.23;4.50;;;;;;;15.26;46.56;98848.72;5093805;28;20508;-49
2023/05/18 05:13:46;;;;;;;12.75;4.75;;;;;;;15.28;46.61;98851.97;5092668;28;20081;-50
2023/05/18 05:16:11;;;;;;;11.32;3.88;;;;;;;15.30;46.56;98850.69;5092287;28;20027;-49
2023/05/18 05:18:37;;;;;;;12.52;5.20;;;;;;;15.32;46.72;98856.56;5093978;28;20031;-49
2023/05/18 05:21:03;;;;;;;9.38;4.00;;;;;;;15.36;46.72;98855.06;5093564;28;20450;-49
2023/05/18 05:23:29;;;;;;;11.82;3.75;;;;;;;15.45;46.58;98858.19;5092239;28;20105;-49
2023/05/18 05:25:54;;;;;;;11.57;4.25;;;;;;;15.57;46.18;98860.84;5091344;28;20039;-50
2023/05/18 05:28:20;;;;;;;12.30;4.05;;;;;;;15.63;46.19;98861.78;5093685;28;20024;-49
2023/05/18 05:30:46;;;;;;;12.07;4.38;;;;;;;15.66;46.08;98867.41;5093466;28;20493;-49
2023/05/18 05:33:11;;;;;;;14.45;4.70;;;;;;;15.75;46.03;98870.56;5092053;28;20027;-50
2023/05/18 05:35:37;;;;;;;8.45;4.07;;;;;;;15.75;45.81;98867.91;5091958;28;20024;-49
2023/05/18 05:38:02;;;;;;;11.77;3.75;;;;;;;15.77;45.74;98871.13;5093329;28;20023;-49
2023/05/18 05:40:28;;;;;;;10.88;3.90;;;;;;;15.84;45.71;98865.75;5091659;28;20509;-50
2023/05/18 05:42:54;;;;;;;13.73;4.25;;;;;;;15.82;45.26;98876.56;5091861;28;20059;-49
2023/05/18 05:45:20;;;;;;;13.25;4.80;;;;;;;15.63;45.60;98869.72;5091690;28;20584;-49
2023/05/18 05:47:45;;;;;;;7.22;3.75;;;;;;;15.21;45.12;98870.53;5091756;28;20031;-49
2023/05/18 05:50:11;;;;;;;13.27;4.45;;;;;;;14.51;46.85;98878.97;5091670;28;20035;-49
2023/05/18 05:52:37;;;;;;;9.90;3.85;;;;;;;14.42;47.40;98881.06;5092969;28;20106;-49
2023/05/18 05:55:03;;;;;;;14.13;4.80;;;;;;;14.56;47.81;98887.03;5091636;28;20066;-49
2023/05/18 05:57:28;;;;;;;7.72;4.20;;;;;;;14.66;47.17;98886.53;5091611;28;20034;-49
2023/05/18 05:59:54;;;;;;;7.05;4.18;;;;;;;14.66;46.95;98884.69;5091566;28;20032;-50
2023/05/18 06:02:20;;;;;;;11.48;4.80;;;;;;;14.52;47.31;98891.13;5091481;28;20024;-49
2023/05/18 06:04:45;;;;;;;7.38;4.13;;;;;;;14.41;47.74;98884.75;5092682;28;20020;-48
2023/05/18 06:07:11;;;;;;;11.93;4.10;;;;;;;14.70;47.68;98898.28;5092714;28;20024;-49
2023/05/18 06:09:37;;;;;;;8.25;4.38;;;;;;;15.03;46.65;98897.03;5092692;28;20032;-48
2023/05/18 06:12:03;;;;;;;18.63;5.03;;;;;;;14.90;47.49;98898.03;5092560;28;20024;-49
2023/05/18 06:14:29;;;;;;;10.70;4.63;;;;;;;15.05;47.43;98894.97;5091303;28;20527;-49
2023/05/18 06:16:55;;;;;;;13.73;4.10;;;;;;;15.36;47.38;98907.16;5092484;28;20025;-49
2023/05/18 06:19:21;;;;;;;12.43;4.30;;;;;;;15.72;45.85;98903.59;5092562;28;20106;-49
2023/05/18 06:21:46;;;;;;;19.92;4.85;;;;;;;15.66;45.11;98895.72;5092689;28;20477;-49
2023/05/18 06:24:12;;;;;;;12.07;4.15;;;;;;;15.76;45.45;98902.09;5092427;28;20024;-49
2023/05/18 06:26:38;;;;;;;16.08;4.38;;;;;;;15.96;45.04;98915.00;5092291;28;20066;-49
2023/05/18 06:29:04;;;;;;;12.55;4.57;;;;;;;15.97;45.16;98911.28;5092338;28;20020;-49
2023/05/18 06:31:31;;;;;;;14.75;4.60;;;;;;;16.17;45.35;98903.00;5092313;28;20028;-49
2023/05/18 06:33:56;;;;;;;17.80;4.68;;;;;;;16.25;45.10;98901.06;5092224;28;20244;-49
2023/05/18 06:36:22;;;;;;;13.70;4.35;;;;;;;16.50;45.09;98908.72;5090988;28;20102;-49
2023/05/18 06:38:47;;;;;;;14.05;4.75;;;;;;;16.75;44.78;98908.47;5090027;28;20024;-49
2023/05/18 06:41:13;;;;;;;10.98;4.22;;;;;;;16.86;44.49;98906.81;5091992;28;20052;-49
2023/05/18 06:43:39;;;;;;;11.98;4.15;;;;;;;16.87;44.73;98906.59;5092063;28;20020;-49
2023/05/18 06:46:06;;;;;;;7.57;4.10;;;;;;;17.09;43.66;98919.22;5090690;28;20102;-49
2023/05/18 06:48:32;;;;;;;12.02;4.82;;;;;;;17.10;44.02;98912.84;5090884;28;20032;-49
2023/05/18 06:50:58;;;;;;;7.93;3.80;;;;;;;17.19;43.11;98923.91;5092032;28;20016;-49
2023/05/18 06:53:23;;;;;;;12.55;4.22;;;;;;;17.12;43.32;98919.56;5073951;28;20020;-49
2023/05/18 06:55:49;;;;;;;5.80;4.13;;;;;;;17.29;42.61;98929.38;5091995;28;20504;-49
2023/05/18 06:58:15;;;;;;;15.65;4.80;;;;;;;17.01;43.08;98928.34;5073859;28;20110;-49
2023/05/18 07:00:41;;;;;;;11.18;4.78;;;;;;;17.07;43.32;98929.25;5090584;28;20031;-49
2023/05/18 07:03:07;;;;;;;11.00;4.68;;;;;;;17.31;42.92;98933.41;5091854;28;20486;-49
2023/05/18 07:05:33;;;;;;;9.85;4.63;;;;;;;17.70;41.92;98920.25;5091734;28;20074;-49
2023/05/18 07:07:58;;;;;;;15.38;5.47;;;;;;;17.99;41.37;98920.22;5090542;28;20035;-49
2023/05/18 07:10:24;;;;;;;24.25;6.43;;;;;;;18.14;41.06;98922.28;5091888;28;20103;-49
2023/05/18 07:12:50;;;;;;;14.82;5.03;;;;;;;18.20;40.94;98920.50;5091809;28;20016;-49
2023/05/18 07:15:15;;;;;;;16.38;5.53;;;;;;;18.31;40.73;98922.25;5092042;28;20020;-47
2023/05/18 07:17:41;;;;;;;15.82;5.22;;;;;;;18.36;40.82;98923.13;5092317;28;20455;-46
2023/05/18 07:20:08;;;;;;;10.95;4.43;;;;;;;18.39;40.56;98921.03;5090352;28;20418;-46
2023/05/18 07:22:34;;;;;;;17.13;5.80;;;;;;;18.43;40.56;98912.34;5090416;28;20085;-47
2023/05/18 07:25:00;;;;;;;16.50;5.07;;;;;;;18.46;40.68;98917.16;5090583;28;20035;-46
2023/05/18 07:27:27;;;;;;;11.43;4.65;;;;;;;18.52;40.34;98926.00;5091615;28;20020;-47
2023/05/18 07:29:52;;;;;;;11.23;4.65;;;;;;;18.59;39.93;98925.81;5091886;28;20125;-47
2023/05/18 07:32:18;;;;;;;11.32;5.05;;;;;;;18.60;39.80;98927.44;5090438;28;20016;-47
2023/05/18 07:34:46;;;;;;;18.50;5.35;;;;;;;18.73;39.53;98924.38;5091557;28;20036;-47
2023/05/18 07:37:12;;;;;;;12.05;4.70;;;;;;;18.74;39.55;98933.97;5090315;28;20020;-47
2023/05/18 07:39:38;;;;;;;20.38;6.90;;;;;;;18.77;39.43;98944.94;5091577;28;20044;-46
2023/05/18 07:42:04;;;;;;;17.70;5.45;;;;;;;18.81;39.09;98931.94;5091324;28;20471;-47
2023/05/18 07:44:30;;;;;;;13.52;5.10;;;;;;;18.95;39.17;98940.34;5091497;28;20022;-46
2023/05/18 07:46:56;;;;;;;14.52;4.70;;;;;;;19.13;39.47;98944.53;5091419;28;20459;-47
2023/05/18 07:49:22;;;;;;;16.67;5.30;;;;;;;19.00;41.06;98945.75;5093307;28;20446;-47
2023/05/18 07:51:49;;;;;;;15.13;5.03;;;;;;;18.83;41.66;98959.09;5095273;28;20031;-46
2023/05/18 07:54:14;;;;;;;15.30;4.68;;;;;;;18.56;41.60;98961.66;5094260;28;20032;-46
2023/05/18 07:56:40;;;;;;;16.35;5.55;;;;;;;18.38;41.52;98956.63;5095233;28;20065;-46
2023/05/18 07:59:08;;;;;;;7.82;4.22;;;;;;;18.28;41.27;98960.75;5093917;28;20020;-46
2023/05/18 08:01:34;;;;;;;18.10;5.47;;;;;;;18.31;41.73;98957.63;5095385;28;20020;-46
2023/05/18 08:04:00;;;;;;;23.95;5.88;;;;;;;18.33;42.31;98957.34;5094083;28;20485;-46
2023/05/18 08:06:26;;;;;;;10.85;4.57;;;;;;;18.36;42.36;98957.66;5093607;28;20024;-46
2023/05/18 08:08:51;;;;;;;13.57;4.40;;;;;;;18.35;42.10;98958.72;5094917;28;20095;-46
2023/05/18 08:11:17;;;;;;;12.23;4.65;;;;;;;18.52;41.33;98957.88;5093616;28;20031;-46
2023/05/18 08:13:43;;;;;;;11.95;4.72;;;;;;;18.87;40.41;98954.09;5094912;28;20020;-46
2023/05/18 08:16:08;;;;;;;18.30;5.20;;;;;;;19.60;39.13;98951.94;5094862;28;20397;-46
2023/05/18 08:18:34;;;;;;;14.02;4.38;;;;;;;20.40;37.33;98957.34;5095148;28;20470;-47
2023/05/18 08:21:02;;;;;;;16.55;5.60;;;;;;;20.42;36.46;98957.09;5094702;28;20107;-46
2023/05/18 08:23:28;;;;;;;20.45;4.93;;;;;;;20.45;36.93;98960.03;5094714;28;20047;-46
2023/05/18 08:25:55;;;;;;;14.95;6.00;;;;;;;20.85;36.30;98966.66;5094547;28;20024;-46
2023/05/18 08:28:22;;;;;;;9.02;4.80;;;;;;;21.57;35.34;98968.75;5094973;28;20027;-46
2023/05/18 08:30:47;;;;;;;13.52;6.18;;;;;;;22.33;34.35;98963.41;5093187;28;20020;-47
2023/05/18 08:33:13;;;;;;;20.77;10.43;;;;;;;23.15;32.72;98959.66;5094585;28;20031;-46
2023/05/18 08:35:39;;;;;;;13.98;7.05;;;;;;;23.91;31.26;98952.97;5094740;28;20008;-47
2023/05/18 08:38:04;;;;;;;18.75;6.35;;;;;;;24.20;30.60;98959.41;5094492;28;20485;-46
2023/05/18 08:41:07;;;;;;;9.95;4.78;;;;;;;24.43;30.19;98945.25;5094087;28;20024;-46
2023/05/18 08:43:37;;;;;;;8.57;4.70;;;;;;;25.06;29.05;98951.50;5092262;28;20047;-46
2023/05/18 08:46:25;;;;;;;9.07;3.95;;;;;;;27.70;27.06;98951.44;5091771;28;20077;-47
2023/05/18 08:48:52;;;;;;;8.15;4.45;;;;;;;28.85;24.77;98943.56;5091796;28;20580;-47
2023/05/18 08:51:19;;;;;;;13.00;5.05;;;;;;;28.96;24.46;98946.00;5093099;28;20398;-47
2023/05/18 08:53:52;;;;;;;14.85;4.82;;;;;;;30.09;23.35;98937.03;5092008;28;20088;-47
2023/05/18 08:56:22;;;;;;;6.22;4.10;;;;;;;30.82;22.51;98948.47;5091734;28;20549;-48
2023/05/18 08:58:51;;;;;;;10.02;4.00;;;;;;;31.49;21.52;98948.66;5092910;28;20027;-48
2023/05/18 09:01:17;;;;;;;7.93;4.03;;;;;;;31.44;21.38;98938.00;5091754;28;20034;-47
2023/05/18 09:03:48;;;;;;;13.85;4.72;;;;;;;31.34;21.12;98936.50;5092890;28;20024;-48
2023/05/18 09:06:14;;;;;;;11.52;4.10;;;;;;;30.77;21.85;98945.97;5092751;28;20516;-48
2023/05/18 09:08:40;;;;;;;10.43;4.53;;;;;;;30.64;21.80;98947.00;5091581;28;20034;-47
2023/05/18 09:11:08;;;;;;;6.45;3.53;;;;;;;30.34;21.57;98946.19;5092737;28;20020;-47
2023/05/18 09:13:33;;;;;;;7.22;3.38;;;;;;;30.64;21.38;98945.06;5091451;28;20023;-47
2023/05/18 09:15:59;;;;;;;8.55;3.72;;;;;;;31.05;21.00;98950.94;5091360;28;20016;-47
2023/05/18 09:18:25;;;;;;;10.23;4.75;;;;;;;31.58;20.80;98949.38;5092583;28;20020;-47
2023/05/18 09:20:51;;;;;;;8.90;4.40;;;;;;;31.53;20.85;98951.50;5092841;28;20397;-47
2023/05/18 09:23:16;;;;;;;14.70;4.80;;;;;;;31.04;20.99;98947.41;5091336;28;20023;-47
2023/05/18 09:25:48;;;;;;;11.55;4.80;;;;;;;31.50;20.81;98946.75;5092425;28;20034;-48
2023/05/18 09:28:38;;;;;;;11.63;4.80;;;;;;;32.29;19.72;98941.31;5091331;28;20020;-47
2023/05/18 09:31:06;;;;;;;6.82;4.10;;;;;;;32.60;19.59;98941.56;5091194;28;20031;-47
2023/05/18 09:33:35;;;;;;;9.25;4.05;;;;;;;32.77;19.01;98937.78;5091183;28;20039;-47
2023/05/18 09:36:03;;;;;;;7.50;4.20;;;;;;;32.13;19.83;98930.31;5091057;28;20028;-47
2023/05/18 09:38:28;;;;;;;11.80;4.30;;;;;;;33.33;18.90;98939.03;5091080;28;20401;-48
2023/05/18 09:40:54;;;;;;;6.78;4.07;;;;;;;34.17;18.02;98932.75;5045925;28;1317875;-47
2023/05/18 09:43:20;;;;;;;11.35;4.78;;;;;;;34.22;17.86;98935.19;5091890;28;20039;-47
2023/05/18 09:45:48;;;;;;;10.20;4.47;;;;;;;33.54;18.31;98930.66;5091639;28;20100;-48
2023/05/18 09:48:15;;;;;;;17.38;4.25;;;;;;;33.85;18.13;98931.88;5093092;28;20024;-47
2023/05/18 09:50:43;;;;;;;13.93;4.68;;;;;;;33.81;17.81;98932.59;5091735;28;20027;-48
2023/05/18 09:53:10;;;;;;;8.55;4.40;;;;;;;34.06;17.95;98931.63;5091939;28;20035;-48
2023/05/18 09:55:47;;;;;;;12.18;4.70;;;;;;;34.45;17.72;98929.09;5093184;28;20428;-48
2023/05/18 09:58:13;;;;;;;6.60;3.80;;;;;;;34.88;16.90;98924.63;5091564;28;20443;-47
2023/05/18 10:00:50;;;;;;;10.30;4.45;;;;;;;34.41;17.19;98929.81;5092812;28;20024;-47
2023/05/18 10:03:21;;;;;;;15.43;4.82;;;;;;;34.07;17.57;98927.75;5092886;28;20024;-47
2023/05/18 10:05:47;;;;;;;12.10;4.63;;;;;;;34.08;17.76;98929.34;5091383;28;20093;-47
2023/05/18 10:08:14;;;;;;;9.82;4.30;;;;;;;33.99;17.99;98927.59;5093011;28;20370;-47
2023/05/18 10:10:46;;;;;;;11.23;4.60;;;;;;;33.39;17.96;98929.50;5091590;28;20544;-47
2023/05/18 10:13:19;;;;;;;8.23;4.35;;;;;;;33.75;17.84;98933.22;5092394;28;20092;-48
2023/05/18 10:15:53;;;;;;;8.63;3.90;;;;;;;33.87;17.79;98924.97;5092776;28;20024;-47
2023/05/18 10:18:24;;;;;;;4.70;3.90;;;;;;;33.27;18.19;98924.09;5092484;28;20357;-47
2023/05/18 10:20:51;;;;;;;16.63;5.00;;;;;;;32.66;19.12;98928.53;5091393;28;20020;-47
2023/05/18 10:23:19;;;;;;;10.27;4.88;;;;;;;31.38;19.40;98933.91;5092449;28;20039;-47
2023/05/18 10:25:47;;;;;;;12.95;4.90;;;;;;;30.23;20.85;98935.69;5090995;28;20107;-48
2023/05/18 10:28:18;;;;;;;7.25;4.10;;;;;;;30.15;21.06;98931.09;5091069;28;20027;-47
2023/05/18 10:30:46;;;;;;;6.18;4.43;;;;;;;31.50;20.47;98925.84;5092332;28;20020;-47
2023/05/18 10:33:12;;;;;;;11.40;4.97;;;;;;;32.33;19.24;98923.97;5091058;28;20027;-47
2023/05/18 10:35:38;;;;;;;8.68;4.13;;;;;;;33.27;18.85;98921.38;5090857;28;20165;-47
2023/05/18 10:38:05;;;;;;;8.70;4.72;;;;;;;34.01;17.89;98921.81;5090928;28;20111;-48
2023/05/18 10:40:33;;;;;;;9.48;4.30;;;;;;;33.88;18.17;98923.03;5091864;28;20019;-48
2023/05/18 10:43:02;;;;;;;11.35;4.20;;;;;;;33.60;17.90;98921.88;5092222;28;20115;-47
2023/05/18 10:45:32;;;;;;;6.85;4.38;;;;;;;32.98;18.27;98924.06;5092215;28;20398;-48
2023/05/18 10:48:00;;;;;;;9.02;4.10;;;;;;;32.37;19.31;98924.09;5092040;28;20035;-47
2023/05/18 10:50:26;;;;;;;10.30;4.70;;;;;;;31.96;19.47;98912.28;5090705;28;20031;-47
2023/05/18 10:52:53;;;;;;;9.02;5.05;;;;;;;31.85;19.46;98922.75;5092289;28;20367;-47
2023/05/18 10:55:19;;;;;;;20.02;5.20;;;;;;;31.36;19.89;98928.81;5090925;28;20051;-48
2023/05/18 10:57:53;;;;;;;8.15;4.43;;;;;;;30.71;20.63;98925.59;5090903;28;20034;-48
2023/05/18 11:00:19;;;;;;;14.75;5.30;;;;;;;30.04;21.50;98924.44;5090680;28;20028;-48
2023/05/18 11:02:46;;;;;;;18.25;5.75;;;;;;;29.77;21.86;98928.38;5091935;28;20032;-48
2023/05/18 11:05:12;;;;;;;11.15;4.70;;;;;;;29.80;22.02;98923.09;5073957;28;20394;-47
2023/05/18 11:07:38;;;;;;;6.00;3.80;;;;;;;29.86;21.57;98924.53;5090569;28;20032;-48
2023/05/18 11:10:08;;;;;;;10.60;4.20;;;;;;;30.49;20.92;98926.69;5091840;28;20031;-47
2023/05/18 11:12:37;;;;;;;13.07;4.50;;;;;;;30.55;20.90;98921.88;5091906;28;20107;-48
2023/05/18 11:15:04;;;;;;;9.20;4.05;;;;;;;30.78;21.03;98922.38;5090791;28;20438;-48
2023/05/18 11:17:30;;;;;;;9.95;4.75;;;;;;;30.96;20.61;98915.72;5091730;28;20028;-48
2023/05/18 11:20:08;;;;;;;13.05;4.70;;;;;;;31.30;19.88;98918.50;5091695;28;20490;-47
2023/05/18 11:22:49;;;;;;;13.98;4.75;;;;;;;31.53;20.13;98916.25;5090695;28;20371;-47
2023/05/18 11:25:35;;;;;;;9.23;4.72;;;;;;;31.42;20.00;98916.63;5093907;28;20537;-48
2023/05/18 11:28:04;;;;;;;12.68;5.35;;;;;;;31.00;20.60;98911.25;5094816;28;20023;-47
2023/05/18 11:30:46;;;;;;;8.30;4.32;;;;;;;30.74;20.92;98916.03;5095722;28;20047;-47